Time;durP1;ratioP1;P1;durP2;ratioP2;P2;SDS_P1;SDS_P2;PMS_P1;PMS_P2;Temp;Humidity;BMP_temperature;BMP_pressure;BME280_temperature;BME280_humidity;BME280_pressure;Samples;Min_cycle;Max_cycle;Signal;HPM_P1;HPM_P2
2022/08/30 00:01:05;;;;;;;5.10;2.03;;;;;;;22.74;60.23;100143.06;5072192;28;20070;-66
2022/08/30 00:03:39;;;;;;;4.63;1.90;;;;;;;22.78;58.88;100139.13;5069954;28;20017;-67
2022/08/30 00:06:06;;;;;;;4.22;1.98;;;;;;;22.79;59.16;100147.13;5069893;28;20124;-66
2022/08/30 00:08:33;;;;;;;4.05;1.80;;;;;;;22.75;59.94;100148.34;5068661;28;20119;-67
2022/08/30 00:11:00;;;;;;;3.83;1.50;;;;;;;22.73;58.86;100152.19;5051001;28;20035;-67
2022/08/30 00:13:27;;;;;;;3.22;1.85;;;;;;;22.67;58.12;100156.25;5068226;28;20022;-67
2022/08/30 00:15:52;;;;;;;4.93;1.67;;;;;;;22.57;60.89;100141.69;5068046;28;20025;-67
2022/08/30 00:18:19;;;;;;;5.63;1.88;;;;;;;22.62;60.92;100160.34;5069437;28;20363;-64
2022/08/30 00:20:47;;;;;;;4.18;1.95;;;;;;;22.58;61.06;100159.72;5069673;28;20100;-64
2022/08/30 00:23:12;;;;;;;4.57;1.90;;;;;;;22.54;60.85;100152.78;5070200;28;20020;-65
2022/08/30 00:25:38;;;;;;;3.13;1.63;;;;;;;22.56;60.63;100153.53;5069793;28;20044;-66
2022/08/30 00:28:04;;;;;;;5.90;2.35;;;;;;;22.55;62.04;100154.53;5068956;28;20028;-65
2022/08/30 00:30:30;;;;;;;4.25;1.90;;;;;;;22.50;63.39;100150.41;5071589;28;20124;-66
2022/08/30 00:32:55;;;;;;;5.00;1.90;;;;;;;22.47;62.18;100151.50;5070770;28;20036;-66
2022/08/30 00:35:21;;;;;;;4.93;2.03;;;;;;;22.46;60.62;100160.63;5071083;28;20036;-66
2022/08/30 00:37:47;;;;;;;4.55;1.80;;;;;;;22.47;59.46;100158.78;5071551;28;20523;-65
2022/08/30 00:40:18;;;;;;;5.93;2.05;;;;;;;22.46;60.46;100154.34;5070051;28;20028;-66
2022/08/30 00:42:43;;;;;;;5.95;1.90;;;;;;;22.43;61.46;100152.75;5070094;28;20440;-66
2022/08/30 00:45:18;;;;;;;3.75;2.05;;;;;;;22.40;62.54;100158.41;5069970;28;20039;-66
2022/08/30 00:47:44;;;;;;;3.80;2.10;;;;;;;22.37;63.81;100157.78;5069793;28;20113;-66
2022/08/30 00:50:12;;;;;;;4.95;2.00;;;;;;;22.23;64.00;100136.31;5069833;28;20498;-66
2022/08/30 00:52:41;;;;;;;5.78;2.10;;;;;;;22.28;63.38;100159.38;5069648;28;20028;-66
2022/08/30 00:55:08;;;;;;;4.50;1.85;;;;;;;22.16;63.59;100141.34;5070745;28;20055;-66
2022/08/30 00:57:34;;;;;;;4.70;1.70;;;;;;;22.18;63.51;100161.06;5070995;28;20035;-66
2022/08/30 01:00:38;;;;;;;4.00;1.90;;;;;;;22.17;65.06;100154.78;5071116;28;20020;-66
2022/08/30 01:03:03;;;;;;;5.68;2.08;;;;;;;22.11;65.47;100148.97;5010562;28;20497;-67
2022/08/30 01:05:29;;;;;;;5.80;1.92;;;;;;;22.03;66.12;100152.28;5008974;28;20041;-67
2022/08/30 01:07:55;;;;;;;4.53;2.05;;;;;;;21.97;66.29;100157.31;5008856;28;20054;-65
2022/08/30 01:10:21;;;;;;;6.38;1.80;;;;;;;21.94;66.70;100157.56;5008858;28;20033;-66
2022/08/30 01:12:47;;;;;;;3.83;1.98;;;;;;;21.84;66.72;100153.81;5008611;28;20041;-66
2022/08/30 01:15:13;;;;;;;3.15;1.95;;;;;;;21.80;67.16;100161.31;5008884;28;20099;-66
2022/08/30 01:17:42;;;;;;;3.28;1.90;;;;;;;21.72;67.44;100152.88;5008634;28;20049;-66
2022/08/30 01:20:11;;;;;;;5.30;2.40;;;;;;;21.65;68.10;100156.16;5008644;28;20045;-67
2022/08/30 01:22:48;;;;;;;4.70;2.20;;;;;;;21.58;68.12;100163.88;5008663;28;20038;-67
2022/08/30 01:25:18;;;;;;;5.35;2.28;;;;;;;21.50;68.78;100160.03;5008395;28;20033;-67
2022/08/30 01:27:50;;;;;;;3.70;1.63;;;;;;;21.41;69.27;100167.00;5015332;28;20183;-67
2022/08/30 01:30:17;;;;;;;6.40;2.80;;;;;;;21.34;69.30;100159.44;5028301;28;20122;-67
2022/08/30 01:32:46;;;;;;;4.55;1.90;;;;;;;21.26;68.62;100161.84;5028269;28;20187;-66
2022/08/30 01:35:15;;;;;;;5.35;2.10;;;;;;;21.22;68.45;100157.66;5028274;28;20029;-67
2022/08/30 01:37:43;;;;;;;6.13;2.03;;;;;;;21.17;68.68;100159.84;5027149;28;20037;-67
2022/08/30 01:40:10;;;;;;;3.67;1.95;;;;;;;21.11;69.44;100160.28;5048066;28;20044;-67
2022/08/30 01:42:35;;;;;;;5.43;2.42;;;;;;;21.03;70.07;100163.56;5070622;28;20028;-67
2022/08/30 01:45:02;;;;;;;4.60;1.92;;;;;;;20.92;70.63;100155.34;5070450;28;20547;-69
2022/08/30 01:47:27;;;;;;;5.57;2.05;;;;;;;20.88;71.08;100162.81;5070529;28;20395;-67
2022/08/30 01:49:53;;;;;;;4.78;1.83;;;;;;;20.82;72.28;100165.09;5070262;28;20036;-67
2022/08/30 01:52:19;;;;;;;5.93;2.05;;;;;;;20.72;71.59;100164.84;5070210;28;20028;-66
2022/08/30 01:54:46;;;;;;;3.95;2.10;;;;;;;20.64;72.55;100172.66;5070026;28;20033;-67
2022/08/30 01:57:15;;;;;;;3.30;1.92;;;;;;;20.57;72.40;100165.09;5070311;28;20028;-67
2022/08/30 01:59:46;;;;;;;3.83;1.98;;;;;;;20.56;73.49;100179.59;5052030;28;20107;-66
2022/08/30 02:02:13;;;;;;;4.65;1.88;;;;;;;20.54;73.38;100170.72;5069965;28;20502;-66
2022/08/30 02:04:39;;;;;;;4.90;1.77;;;;;;;20.48;73.21;100166.63;5050450;28;20049;-67
2022/08/30 02:07:05;;;;;;;5.05;2.17;;;;;;;20.39;73.03;100169.97;5049909;28;20095;-67
2022/08/30 02:09:30;;;;;;;5.53;1.92;;;;;;;20.31;73.64;100164.22;5050186;28;20059;-67
2022/08/30 02:11:56;;;;;;;4.22;2.40;;;;;;;20.23;74.01;100161.19;5062032;28;20016;-67
2022/08/30 02:14:21;;;;;;;4.35;1.88;;;;;;;20.24;74.22;100164.78;5052092;28;20028;-67
2022/08/30 02:16:47;;;;;;;4.05;2.10;;;;;;;20.16;74.45;100156.34;5069990;28;20369;-68
2022/08/30 02:19:13;;;;;;;4.78;2.00;;;;;;;20.13;74.72;100162.78;5069030;28;20476;-68
2022/08/30 02:21:38;;;;;;;5.78;2.28;;;;;;;20.09;74.93;100157.69;5050601;28;20028;-68
2022/08/30 02:24:04;;;;;;;7.18;3.55;;;;;;;20.01;75.23;100152.84;5069454;28;20090;-67
2022/08/30 02:26:30;;;;;;;6.40;2.20;;;;;;;20.02;75.10;100151.84;5069494;28;20098;-67
2022/08/30 02:28:56;;;;;;;4.25;2.20;;;;;;;19.92;75.27;100150.75;5068638;28;20024;-67
2022/08/30 02:31:22;;;;;;;4.55;1.95;;;;;;;19.86;75.39;100151.19;5069320;28;20062;-67
2022/08/30 02:33:50;;;;;;;6.22;2.47;;;;;;;19.87;75.69;100152.06;5069660;28;20387;-67
2022/08/30 02:36:17;;;;;;;3.63;2.00;;;;;;;19.87;75.82;100157.47;5051385;28;20028;-67
2022/08/30 02:38:42;;;;;;;5.05;2.15;;;;;;;19.82;75.50;100154.22;5069923;28;20036;-68
2022/08/30 02:41:08;;;;;;;4.53;2.10;;;;;;;19.78;76.32;100141.88;5051790;28;20031;-67
2022/08/30 02:43:33;;;;;;;5.05;2.15;;;;;;;19.78;76.87;100148.16;5069846;28;20459;-67
2022/08/30 02:45:59;;;;;;;3.65;2.13;;;;;;;19.73;77.09;100150.28;5069900;28;20020;-67
2022/08/30 02:48:24;;;;;;;6.38;2.50;;;;;;;19.70;76.38;100149.63;5072136;28;20028;-67
2022/08/30 02:50:51;;;;;;;3.58;2.10;;;;;;;19.63;76.64;100144.66;5073286;28;20480;-68
2022/08/30 02:53:17;;;;;;;5.80;2.45;;;;;;;19.64;76.49;100145.50;5073274;28;20434;-67
2022/08/30 02:55:43;;;;;;;7.88;2.13;;;;;;;19.65;77.15;100141.84;5073259;28;20028;-67
2022/08/30 02:58:10;;;;;;;6.53;2.63;;;;;;;19.64;78.02;100135.59;5073399;28;20398;-67
2022/08/30 03:00:37;;;;;;;6.03;2.67;;;;;;;19.60;77.95;100133.19;5073111;28;20430;-67
2022/08/30 03:03:02;;;;;;;4.25;2.35;;;;;;;19.53;77.79;100138.16;5073385;28;20033;-67
2022/08/30 03:05:29;;;;;;;4.85;2.33;;;;;;;19.50;78.49;100132.09;5054929;28;20040;-67
2022/08/30 03:07:55;;;;;;;4.70;2.30;;;;;;;19.49;78.89;100133.03;5073063;28;20048;-66
2022/08/30 03:10:21;;;;;;;5.63;2.35;;;;;;;19.41;78.80;100132.69;5072996;28;20387;-67
2022/08/30 03:12:47;;;;;;;12.05;2.65;;;;;;;19.38;79.34;100133.78;5073217;28;20502;-66
2022/08/30 03:15:14;;;;;;;8.23;3.05;;;;;;;19.26;80.21;100133.66;5073095;28;20028;-66
2022/08/30 03:17:40;;;;;;;5.43;2.53;;;;;;;19.21;80.17;100125.00;5072820;28;20036;-67
2022/08/30 03:20:06;;;;;;;3.22;2.08;;;;;;;19.16;79.93;100129.88;5072890;28;20024;-67
2022/08/30 03:22:32;;;;;;;4.65;2.15;;;;;;;19.11;80.37;100135.53;5073140;28;20419;-67
2022/08/30 03:25:00;;;;;;;5.55;1.95;;;;;;;19.07;80.52;100128.63;5073034;28;20069;-67
2022/08/30 03:27:26;;;;;;;4.13;2.05;;;;;;;19.01;80.31;100131.72;5072782;28;20497;-67
2022/08/30 03:29:52;;;;;;;6.07;2.20;;;;;;;18.90;79.74;100130.69;5072775;28;20078;-66
2022/08/30 03:32:18;;;;;;;8.52;2.30;;;;;;;18.95;80.02;100133.94;5072680;28;20032;-66
2022/08/30 03:34:43;;;;;;;5.97;2.30;;;;;;;18.90;80.69;100114.50;5072553;28;20502;-67
2022/08/30 03:37:09;;;;;;;4.82;2.10;;;;;;;18.87;80.70;100123.69;5072567;28;20496;-67
2022/08/30 03:39:35;;;;;;;5.65;2.45;;;;;;;18.95;80.81;100125.84;5072605;28;20107;-67
2022/08/30 03:42:00;;;;;;;4.15;2.10;;;;;;;18.97;80.96;100132.91;5072559;28;20056;-66
2022/08/30 03:44:26;;;;;;;4.90;2.22;;;;;;;18.94;80.51;100130.41;5072694;28;20123;-66
2022/08/30 03:46:51;;;;;;;6.93;2.30;;;;;;;18.98;80.69;100128.34;5072350;28;20020;-66
2022/08/30 03:49:19;;;;;;;6.00;2.15;;;;;;;19.01;81.21;100133.56;5072219;28;20032;-66
2022/08/30 03:51:45;;;;;;;9.02;2.08;;;;;;;18.90;81.47;100142.34;5053868;28;20035;-67
2022/08/30 03:54:10;;;;;;;8.15;2.63;;;;;;;18.85;81.82;100138.19;5070628;28;20024;-67
2022/08/30 03:56:36;;;;;;;4.45;2.30;;;;;;;18.81;81.54;100139.38;5070475;28;20036;-67
2022/08/30 03:59:03;;;;;;;6.70;2.20;;;;;;;18.83;81.37;100140.16;5069830;28;20024;-66
2022/08/30 04:01:28;;;;;;;4.75;2.10;;;;;;;18.78;80.83;100136.88;5070829;28;20183;-66
2022/08/30 04:03:55;;;;;;;3.85;2.05;;;;;;;18.77;81.89;100143.22;5070557;28;20040;-67
2022/08/30 04:06:21;;;;;;;6.25;2.45;;;;;;;18.81;81.76;100142.06;5069461;28;20037;-67
2022/08/30 04:08:46;;;;;;;4.57;2.67;;;;;;;18.83;81.54;100145.53;5071991;28;20561;-66
2022/08/30 04:11:13;;;;;;;10.38;2.50;;;;;;;18.79;81.63;100146.69;5071899;28;20116;-67
2022/08/30 04:13:39;;;;;;;5.60;2.58;;;;;;;18.73;82.40;100150.63;5071404;28;20503;-67
2022/08/30 04:16:05;;;;;;;14.55;2.30;;;;;;;18.67;82.64;100147.47;5071242;28;20017;-67
2022/08/30 04:18:30;;;;;;;4.90;2.13;;;;;;;18.62;82.91;100146.88;5071663;28;20032;-66
2022/08/30 04:20:55;;;;;;;6.75;2.28;;;;;;;18.63;83.25;100143.25;5070178;28;20209;-66
2022/08/30 04:23:21;;;;;;;4.50;2.10;;;;;;;18.61;83.45;100147.84;5069637;28;20086;-66
2022/08/30 04:25:46;;;;;;;4.60;2.15;;;;;;;18.61;83.60;100145.16;5069588;28;20038;-66
2022/08/30 04:28:12;;;;;;;4.90;2.65;;;;;;;18.59;83.53;100152.47;5070428;28;20487;-66
2022/08/30 04:30:40;;;;;;;5.32;2.20;;;;;;;18.59;82.55;100147.09;5069753;28;20032;-66
2022/08/30 04:33:06;;;;;;;3.80;2.00;;;;;;;18.50;82.91;100151.22;5070207;28;20024;-66
2022/08/30 04:35:31;;;;;;;5.20;2.50;;;;;;;18.41;83.27;100142.84;5071587;28;20153;-67
2022/08/30 04:37:56;;;;;;;4.50;2.20;;;;;;;18.30;83.80;100144.34;5071504;28;20029;-66
2022/08/30 04:40:22;;;;;;;5.93;2.20;;;;;;;18.27;84.29;100141.84;5071505;28;20444;-66
2022/08/30 04:42:52;;;;;;;5.72;2.45;;;;;;;18.28;84.25;100149.00;5071249;28;20028;-66
2022/08/30 04:45:20;;;;;;;4.90;2.25;;;;;;;18.27;84.64;100151.75;5070732;28;20480;-66
2022/08/30 04:47:45;;;;;;;5.40;2.30;;;;;;;18.26;84.67;100156.28;5071265;28;20437;-66
2022/08/30 04:50:13;;;;;;;6.15;2.88;;;;;;;18.35;84.09;100160.25;5071612;28;20166;-67
2022/08/30 04:52:39;;;;;;;7.10;2.55;;;;;;;18.33;83.86;100163.00;5070929;28;20366;-66
2022/08/30 04:55:05;;;;;;;7.43;2.45;;;;;;;18.35;84.42;100163.78;5071123;28;20032;-66
2022/08/30 04:57:30;;;;;;;9.38;2.97;;;;;;;18.37;84.09;100161.88;5070956;28;20029;-66
2022/08/30 04:59:56;;;;;;;5.15;2.00;;;;;;;18.43;84.30;100168.75;5071248;28;20471;-66
2022/08/30 05:02:22;;;;;;;5.18;2.53;;;;;;;18.42;84.11;100175.06;5070888;28;20028;-66
2022/08/30 05:07:32;;;;;;;4.75;2.50;;;;;;;18.44;84.17;100180.38;5070961;28;20097;-67
2022/08/30 05:09:58;;;;;;;7.18;3.05;;;;;;;18.46;84.35;100186.53;5070999;28;20024;-66
2022/08/30 05:12:23;;;;;;;4.20;2.70;;;;;;;18.37;84.04;100177.16;5070469;28;20442;-66
2022/08/30 05:14:49;;;;;;;7.68;2.65;;;;;;;18.38;83.62;100182.44;5070941;28;20032;-66
2022/08/30 05:17:15;;;;;;;6.28;2.45;;;;;;;18.54;83.20;100186.91;5069805;28;20081;-67
2022/08/30 05:19:40;;;;;;;7.45;2.50;;;;;;;18.52;82.97;100184.31;5051487;28;20025;-66
2022/08/30 05:22:06;;;;;;;5.25;2.42;;;;;;;18.54;83.57;100186.91;5051274;28;20519;-67
2022/08/30 05:24:31;;;;;;;3.65;2.03;;;;;;;18.51;84.82;100179.03;5069850;28;20032;-67
2022/08/30 05:26:57;;;;;;;4.68;2.60;;;;;;;18.54;84.86;100178.84;5069203;28;20024;-67
2022/08/30 05:29:23;;;;;;;4.78;2.53;;;;;;;18.58;85.54;100183.97;5069702;28;20116;-66
2022/08/30 05:31:49;;;;;;;7.45;2.63;;;;;;;18.71;86.36;100184.91;5069824;28;20107;-67
2022/08/30 05:34:15;;;;;;;5.68;2.42;;;;;;;18.87;85.73;100185.66;5070596;28;20387;-67
2022/08/30 05:36:40;;;;;;;6.00;2.75;;;;;;;18.94;85.50;100181.63;5070803;28;20514;-67
2022/08/30 05:39:07;;;;;;;4.82;2.63;;;;;;;19.00;85.37;100185.75;5070434;28;20033;-67
2022/08/30 05:41:34;;;;;;;4.95;2.22;;;;;;;19.05;85.08;100184.50;5070521;28;20047;-67
2022/08/30 05:44:01;;;;;;;8.13;2.30;;;;;;;19.13;85.15;100183.97;5070525;28;20526;-67
2022/08/30 05:46:31;;;;;;;4.68;2.50;;;;;;;19.24;84.10;100190.41;5070580;28;20031;-67
2022/08/30 05:49:00;;;;;;;6.68;2.03;;;;;;;19.35;83.27;100192.44;5070392;28;20024;-67
2022/08/30 05:51:28;;;;;;;7.50;2.60;;;;;;;19.32;83.45;100155.75;5070525;28;20024;-67
2022/08/30 05:53:55;;;;;;;7.43;2.33;;;;;;;19.68;82.35;100192.91;5070107;28;20025;-66
2022/08/30 05:56:29;;;;;;;7.40;3.10;;;;;;;20.04;80.80;100198.53;5069540;28;20409;-67
2022/08/30 05:58:54;;;;;;;9.32;3.92;;;;;;;20.19;76.66;100194.81;5070203;28;20032;-67
2022/08/30 06:01:41;;;;;;;5.63;2.65;;;;;;;20.38;76.41;100202.47;5070619;28;20023;-67
2022/08/30 06:04:08;;;;;;;7.32;3.63;;;;;;;20.50;75.28;100193.53;5069536;28;20129;-67
2022/08/30 06:06:36;;;;;;;5.53;2.20;;;;;;;20.69;73.30;100191.28;5048537;28;20053;-67
2022/08/30 06:09:04;;;;;;;6.15;2.13;;;;;;;20.87;72.85;100196.22;5049634;28;20020;-68
2022/08/30 06:11:29;;;;;;;4.15;2.05;;;;;;;21.05;71.77;100196.78;5049395;28;20400;-68
2022/08/30 06:13:55;;;;;;;4.55;1.88;;;;;;;21.22;70.94;100188.28;5050092;28;20048;-67
2022/08/30 06:16:23;;;;;;;4.10;2.00;;;;;;;21.43;69.99;100193.97;5049017;28;20463;-67
2022/08/30 06:18:49;;;;;;;5.38;2.15;;;;;;;21.57;68.92;100185.66;5048727;28;20024;-67
2022/08/30 06:21:21;;;;;;;4.38;1.90;;;;;;;21.83;68.63;100192.72;5048639;28;20028;-67
2022/08/30 06:23:46;;;;;;;8.20;2.05;;;;;;;22.08;67.30;100192.56;5051932;28;20380;-67
2022/08/30 06:26:12;;;;;;;4.68;2.00;;;;;;;22.59;63.38;100193.97;5052853;28;20025;-67
2022/08/30 06:28:38;;;;;;;6.32;1.92;;;;;;;23.12;63.10;100198.69;5050862;28;20476;-67
2022/08/30 06:31:08;;;;;;;5.63;2.13;;;;;;;23.23;60.66;100201.38;5053668;28;20029;-67
2022/08/30 06:33:33;;;;;;;4.28;2.10;;;;;;;23.28;60.98;100196.47;5053420;28;20400;-67
2022/08/30 06:36:08;;;;;;;4.25;1.85;;;;;;;23.32;61.40;100199.78;5053547;28;20044;-67
2022/08/30 06:38:34;;;;;;;7.30;2.05;;;;;;;23.41;60.88;100208.03;5053763;28;20036;-67
2022/08/30 06:40:59;;;;;;;7.55;2.22;;;;;;;23.56;62.21;100207.78;5053581;28;20025;-68
2022/08/30 06:43:25;;;;;;;6.00;2.03;;;;;;;23.63;60.59;100208.97;5052886;28;20020;-68
2022/08/30 06:45:50;;;;;;;5.07;2.20;;;;;;;23.82;59.80;100203.75;5049407;28;20395;-68
2022/08/30 06:48:16;;;;;;;4.85;2.13;;;;;;;24.03;59.81;100212.81;5032018;28;20082;-68
2022/08/30 06:50:42;;;;;;;6.97;2.30;;;;;;;24.22;58.44;100212.97;5031907;28;20496;-68
2022/08/30 06:53:08;;;;;;;4.82;1.85;;;;;;;24.23;58.09;100209.28;5036050;28;20075;-67
2022/08/30 06:55:33;;;;;;;6.70;1.83;;;;;;;24.47;55.86;100226.19;5051917;28;20480;-67
2022/08/30 06:58:01;;;;;;;5.45;1.80;;;;;;;24.85;55.96;100222.88;5050765;28;20460;-67
2022/08/30 07:00:27;;;;;;;5.53;2.20;;;;;;;25.07;54.18;100222.72;5049698;28;20093;-67
2022/08/30 07:02:53;;;;;;;4.15;2.03;;;;;;;25.37;53.53;100226.28;5050405;28;20369;-67
2022/08/30 07:05:22;;;;;;;5.50;2.17;;;;;;;25.65;52.77;100230.13;5050081;28;20490;-66
2022/08/30 07:07:48;;;;;;;8.02;2.38;;;;;;;25.97;51.92;100230.72;5048821;28;20044;-67
2022/08/30 07:10:14;;;;;;;4.25;2.30;;;;;;;26.28;50.07;100217.84;5062742;28;20471;-67
2022/08/30 07:12:40;;;;;;;6.85;2.70;;;;;;;26.54;49.32;100227.19;5070419;28;20503;-68
2022/08/30 07:15:06;;;;;;;4.25;2.10;;;;;;;27.01;49.63;100223.50;5070850;28;20077;-68
2022/08/30 07:20:28;;;;;;;4.38;2.47;;;;;;;27.61;47.87;100213.91;5008813;28;20041;-67
2022/08/30 07:22:54;;;;;;;5.55;2.25;;;;;;;27.79;46.49;100232.03;5065645;28;20093;-67
2022/08/30 07:25:19;;;;;;;8.23;2.42;;;;;;;28.10;46.31;100227.97;5070992;28;20024;-67
2022/08/30 07:27:45;;;;;;;6.28;2.08;;;;;;;28.38;45.76;100232.31;5071247;28;20033;-66
2022/08/30 07:30:11;;;;;;;6.53;1.83;;;;;;;28.45;45.10;100219.72;5052495;28;20531;-66
2022/08/30 07:32:37;;;;;;;7.75;2.10;;;;;;;28.58;44.46;100221.25;5059536;28;20108;-66
2022/08/30 07:35:03;;;;;;;5.25;1.98;;;;;;;28.60;44.66;100222.78;5069414;28;20028;-66
2022/08/30 07:37:29;;;;;;;4.72;2.17;;;;;;;28.60;44.55;100227.41;5070813;28;20055;-66
2022/08/30 07:39:54;;;;;;;4.97;2.20;;;;;;;28.58;45.76;100221.25;5070305;28;20085;-66
2022/08/30 07:42:20;;;;;;;5.53;2.00;;;;;;;28.62;44.77;100220.75;5071224;28;20392;-66
2022/08/30 07:44:45;;;;;;;7.13;2.75;;;;;;;28.62;44.79;100231.69;5052708;28;20029;-66
2022/08/30 07:47:10;;;;;;;4.82;2.20;;;;;;;28.81;45.00;100227.91;5070513;28;20040;-66
2022/08/30 07:49:37;;;;;;;5.20;2.10;;;;;;;28.69;45.25;100227.31;5068045;28;20063;-66
2022/08/30 07:52:03;;;;;;;4.63;1.85;;;;;;;28.68;44.29;100225.59;5068522;28;20115;-66
2022/08/30 07:54:29;;;;;;;5.97;2.10;;;;;;;28.70;45.29;100222.72;5067976;28;20141;-67
2022/08/30 07:56:54;;;;;;;5.30;2.17;;;;;;;28.90;43.72;100219.59;5067900;28;20386;-67
2022/08/30 07:59:21;;;;;;;6.15;2.50;;;;;;;28.86;44.55;100223.69;5068575;28;20425;-66
2022/08/30 08:01:46;;;;;;;4.05;1.75;;;;;;;29.23;44.01;100216.03;5068187;28;20031;-66
2022/08/30 08:04:12;;;;;;;5.80;2.10;;;;;;;29.44;44.10;100221.97;5069106;28;20476;-66
2022/08/30 08:06:39;;;;;;;4.70;1.90;;;;;;;29.62;43.67;100209.00;5069564;28;20045;-67
2022/08/30 08:09:05;;;;;;;5.07;2.00;;;;;;;29.78;42.48;100210.97;5069670;28;20029;-67
2022/08/30 08:11:32;;;;;;;6.05;2.28;;;;;;;29.92;42.61;100218.53;5064889;28;20036;-66
2022/08/30 08:13:57;;;;;;;4.63;2.95;;;;;;;30.07;42.89;100216.88;5068486;28;20119;-65
2022/08/30 08:16:25;;;;;;;5.57;2.15;;;;;;;30.30;42.34;100217.94;5069469;28;20104;-66
2022/08/30 08:18:52;;;;;;;6.07;2.13;;;;;;;30.68;41.95;100216.41;5070482;28;20028;-66
2022/08/30 08:21:17;;;;;;;4.93;2.00;;;;;;;30.80;42.13;100215.91;5069872;28;20028;-66
2022/08/30 08:23:43;;;;;;;4.40;2.45;;;;;;;30.92;41.08;100213.66;5068218;28;20035;-66
2022/08/30 08:26:09;;;;;;;6.35;2.47;;;;;;;30.96;40.79;100222.38;5070704;28;20135;-66
2022/08/30 08:28:34;;;;;;;4.97;1.95;;;;;;;31.16;41.68;100208.09;5070947;28;20043;-66
2022/08/30 08:31:00;;;;;;;7.78;2.17;;;;;;;31.44;41.44;100211.28;5071213;28;20043;-66
2022/08/30 08:33:26;;;;;;;5.60;2.30;;;;;;;31.69;41.29;100210.13;5071660;28;20444;-66
2022/08/30 08:35:52;;;;;;;6.38;2.70;;;;;;;31.64;40.37;100213.44;5071211;28;20024;-66
2022/08/30 08:38:17;;;;;;;5.07;2.17;;;;;;;31.55;41.01;100210.91;5071632;28;20024;-66
2022/08/30 08:40:51;;;;;;;7.70;2.25;;;;;;;31.58;40.92;100205.88;5071396;28;20111;-65
2022/08/30 08:43:19;;;;;;;11.63;2.50;;;;;;;31.76;41.08;100216.66;5071040;28;20055;-65
2022/08/30 08:45:48;;;;;;;4.35;2.10;;;;;;;31.66;40.16;100211.38;5070880;28;20056;-65
2022/08/30 08:48:21;;;;;;;5.15;2.15;;;;;;;31.70;40.40;100207.19;5070574;28;20020;-65
2022/08/30 08:53:34;;;;;;;5.75;2.55;;;;;;;31.92;40.04;100208.31;5069766;28;20036;-65
2022/08/30 08:56:04;;;;;;;5.90;2.47;;;;;;;32.31;40.03;100209.06;5069863;28;20028;-66
2022/08/30 08:58:40;;;;;;;4.45;2.10;;;;;;;32.60;39.08;100206.47;5069891;28;20028;-65
2022/08/30 09:01:08;;;;;;;7.10;2.03;;;;;;;32.56;38.92;100202.34;5069741;28;20068;-66
2022/08/30 09:03:34;;;;;;;6.53;2.03;;;;;;;32.79;38.29;100197.66;5069633;28;20031;-67
2022/08/30 09:06:04;;;;;;;5.63;2.30;;;;;;;32.92;39.02;100200.66;5070153;28;20059;-66
2022/08/30 09:08:31;;;;;;;6.38;2.33;;;;;;;33.15;38.67;100187.63;5071072;28;20101;-66
2022/08/30 09:11:05;;;;;;;6.78;2.20;;;;;;;33.02;37.98;100203.13;5070945;28;20024;-66
2022/08/30 09:13:31;;;;;;;5.47;2.45;;;;;;;33.07;38.57;100198.75;5071060;28;20054;-67
2022/08/30 09:15:58;;;;;;;7.57;2.50;;;;;;;33.51;38.21;100197.94;5070767;28;20028;-67
2022/08/30 09:18:43;;;;;;;5.38;2.60;;;;;;;33.66;36.36;100184.97;5070819;28;20491;-67
2022/08/30 09:21:10;;;;;;;5.55;2.70;;;;;;;33.78;37.30;100198.06;5070317;28;20030;-67
2022/08/30 09:23:36;;;;;;;7.57;2.60;;;;;;;33.79;36.52;100193.41;5068924;28;20051;-67
2022/08/30 09:26:08;;;;;;;6.72;2.88;;;;;;;33.74;36.74;100187.59;5069251;28;20066;-67
2022/08/30 09:28:50;;;;;;;7.93;3.17;;;;;;;33.94;37.02;100192.31;5068955;28;20029;-67
2022/08/30 09:31:18;;;;;;;7.87;2.63;;;;;;;34.30;36.55;100189.53;5068829;28;20047;-65
2022/08/30 09:33:54;;;;;;;5.88;2.53;;;;;;;34.37;35.75;100184.91;5069419;28;20273;-64
2022/08/30 09:36:26;;;;;;;4.88;2.40;;;;;;;34.47;36.56;100185.47;5050898;28;20032;-65
2022/08/30 09:39:03;;;;;;;9.45;3.35;;;;;;;34.59;36.82;100183.88;5070054;28;20050;-65
2022/08/30 09:41:35;;;;;;;4.72;2.40;;;;;;;34.88;35.95;100178.13;5069181;28;20337;-65
2022/08/30 09:44:08;;;;;;;11.05;3.05;;;;;;;34.67;36.59;100169.91;5069246;28;20028;-65
2022/08/30 09:46:42;;;;;;;9.73;2.85;;;;;;;34.72;36.65;100156.34;5069600;28;20325;-66
2022/08/30 09:49:30;;;;;;;6.80;2.50;;;;;;;34.56;35.67;100159.41;5069991;28;20016;-66
2022/08/30 09:52:33;;;;;;;6.65;3.05;;;;;;;34.54;37.18;100162.38;5069903;28;20024;-66
2022/08/30 09:55:30;;;;;;;4.55;2.42;;;;;;;34.83;37.27;100157.72;5069830;28;20103;-67
2022/08/30 09:58:03;;;;;;;4.85;2.63;;;;;;;34.93;35.57;100153.53;5063301;28;20040;-66
2022/08/30 10:00:34;;;;;;;7.63;2.80;;;;;;;35.00;36.12;100135.09;5074446;28;20060;-67
2022/08/30 10:03:07;;;;;;;5.68;2.50;;;;;;;35.18;36.25;100151.13;5074588;28;20021;-67
2022/08/30 10:05:38;;;;;;;7.80;2.80;;;;;;;35.03;35.71;100148.50;5073546;28;20033;-67
2022/08/30 10:08:22;;;;;;;5.50;2.58;;;;;;;35.18;35.68;100140.94;5073472;28;20520;-67
2022/08/30 10:10:50;;;;;;;5.45;2.30;;;;;;;35.55;36.73;100145.19;5066437;28;20024;-67
2022/08/30 10:13:18;;;;;;;4.78;2.53;;;;;;;35.91;35.20;100148.53;5072585;28;20036;-68
2022/08/30 10:16:11;;;;;;;6.32;2.40;;;;;;;35.98;34.85;100141.09;5071662;28;20063;-67
2022/08/30 10:18:47;;;;;;;;;;;;;;;35.85;34.89;100142.94;5067189;28;20044;-67
2022/08/30 10:21:20;;;;;;;7.28;3.15;;;;;;;36.01;35.43;100132.34;5070904;28;20286;-67
2022/08/30 10:23:50;;;;;;;;;;;;;;;35.67;35.35;100138.81;5073249;28;20086;-67
2022/08/30 10:26:45;;;;;;;6.85;2.80;;;;;;;35.18;36.24;100127.09;5073044;28;20367;-67
2022/08/30 10:29:21;;;;;;;8.40;2.60;;;;;;;34.82;36.13;100126.44;5072928;28;20040;-66
2022/08/30 10:31:51;;;;;;;5.15;2.30;;;;;;;34.28;36.91;100136.38;5072916;28;20060;-67
2022/08/30 10:34:23;;;;;;;4.88;3.00;;;;;;;34.07;37.53;100122.59;5073262;28;20021;-66
2022/08/30 10:37:00;;;;;;;4.85;2.60;;;;;;;33.67;37.40;100126.81;5072333;28;20028;-66
2022/08/30 10:39:30;;;;;;;5.72;3.05;;;;;;;33.36;38.87;100120.69;5073593;28;20039;-66
2022/08/30 10:42:04;;;;;;;5.75;2.55;;;;;;;33.23;39.01;100121.34;5073687;28;20043;-66
2022/08/30 10:44:35;;;;;;;5.78;2.75;;;;;;;33.62;39.94;100120.16;5073762;28;20036;-67
2022/08/30 10:47:19;;;;;;;5.05;2.67;;;;;;;34.41;38.96;100117.19;5072030;28;20103;-67
2022/08/30 10:49:48;;;;;;;5.53;2.53;;;;;;;35.03;37.25;100115.31;5071933;28;20430;-67
2022/08/30 10:52:34;;;;;;;6.15;2.58;;;;;;;35.42;37.47;100115.53;5071647;28;20082;-66
2022/08/30 10:55:10;;;;;;;5.72;2.40;;;;;;;35.10;35.43;100118.13;5057018;28;20035;-67
2022/08/30 10:57:37;;;;;;;5.60;3.20;;;;;;;34.63;37.60;100113.31;5071342;28;20067;-67
2022/08/30 11:00:11;;;;;;;4.75;2.60;;;;;;;34.42;38.05;100121.66;5072700;28;20368;-67
2022/08/30 11:03:04;;;;;;;5.18;2.75;;;;;;;34.06;37.74;100112.59;5073259;28;20024;-67
2022/08/30 11:05:53;;;;;;;7.22;2.60;;;;;;;33.81;39.50;100120.38;5073569;28;20439;-67
2022/08/30 11:08:40;;;;;;;3.97;2.40;;;;;;;33.57;39.26;100120.75;5060174;28;20130;-66
2022/08/30 11:11:17;;;;;;;5.15;2.55;;;;;;;33.37;38.99;100119.63;5073439;28;20067;-66
2022/08/30 11:13:45;;;;;;;6.28;2.90;;;;;;;33.31;41.10;100115.72;5073366;28;20400;-67
2022/08/30 11:16:17;;;;;;;6.90;3.97;;;;;;;33.51;40.23;100115.16;5072936;28;20433;-66
2022/08/30 11:18:50;;;;;;;7.63;3.25;;;;;;;33.67;39.21;100114.91;5055179;28;20169;-66
2022/08/30 11:21:19;;;;;;;5.32;2.95;;;;;;;33.80;40.44;100115.91;5073263;28;20043;-66
2022/08/30 11:24:13;;;;;;;5.15;2.97;;;;;;;33.86;38.63;100112.38;5073277;28;20028;-67
2022/08/30 11:26:44;;;;;;;5.47;3.40;;;;;;;33.94;40.38;100111.44;5072713;28;20052;-67
2022/08/30 11:29:31;;;;;;;5.07;2.70;;;;;;;34.25;39.94;100114.69;5072868;28;20384;-66
2022/08/30 11:32:20;;;;;;;8.85;3.05;;;;;;;34.63;38.42;100102.25;5072849;28;20488;-66
2022/08/30 11:34:45;;;;;;;6.90;3.53;;;;;;;35.37;38.48;100109.72;5072341;28;20050;-67
2022/08/30 11:37:43;;;;;;;7.32;2.78;;;;;;;35.88;36.83;100109.31;5072471;28;20029;-67
2022/08/30 11:40:18;;;;;;;5.78;2.70;;;;;;;36.30;34.86;100101.47;5072629;28;20078;-67
2022/08/30 11:42:47;;;;;;;4.28;2.80;;;;;;;36.67;34.92;100099.97;5072621;28;20032;-66